sensor_id;sensor_type;location;lat;lon;timestamp;P1;durP1;ratioP1;P2;durP2;ratioP2
13477;SDS011;12598;62.382;17.344;2023-08-21T00:00:13;1.38;;;1.27;;
13477;SDS011;12598;62.382;17.344;2023-08-21T00:01:15;1.65;;;1.55;;
13477;SDS011;12598;62.382;17.344;2023-08-21T00:02:17;1.45;;;1.30;;
13477;SDS011;12598;62.382;17.344;2023-08-21T00:03:18;1.40;;;1.30;;
13477;SDS011;12598;62.382;17.344;2023-08-21T00:04:21;1.67;;;1.30;;
13477;SDS011;12598;62.382;17.344;2023-08-21T00:05:22;1.55;;;1.20;;
13477;SDS011;12598;62.382;17.344;2023-08-21T00:06:24;1.75;;;1.63;;
13477;SDS011;12598;62.382;17.344;2023-08-21T00:07:26;2.25;;;1.60;;
13477;SDS011;12598;62.382;17.344;2023-08-21T00:08:28;1.75;;;1.45;;
13477;SDS011;12598;62.382;17.344;2023-08-21T00:09:30;2.22;;;1.50;;
13477;SDS011;12598;62.382;17.344;2023-08-21T00:10:32;1.77;;;1.67;;
13477;SDS011;12598;62.382;17.344;2023-08-21T00:11:34;1.88;;;1.58;;
13477;SDS011;12598;62.382;17.344;2023-08-21T00:12:36;2.72;;;1.55;;
13477;SDS011;12598;62.382;17.344;2023-08-21T00:13:39;2.13;;;1.50;;
13477;SDS011;12598;62.382;17.344;2023-08-21T00:14:41;1.50;;;1.40;;
13477;SDS011;12598;62.382;17.344;2023-08-21T00:15:42;1.58;;;1.45;;
13477;SDS011;12598;62.382;17.344;2023-08-21T00:16:44;2.50;;;1.55;;
13477;SDS011;12598;62.382;17.344;2023-08-21T00:17:46;1.85;;;1.27;;
13477;SDS011;12598;62.382;17.344;2023-08-21T00:18:48;1.67;;;1.40;;
13477;SDS011;12598;62.382;17.344;2023-08-21T00:19:50;2.25;;;1.50;;
13477;SDS011;12598;62.382;17.344;2023-08-21T00:20:52;1.73;;;1.40;;
13477;SDS011;12598;62.382;17.344;2023-08-21T00:21:54;1.50;;;1.33;;
13477;SDS011;12598;62.382;17.344;2023-08-21T00:22:56;1.35;;;1.25;;
13477;SDS011;12598;62.382;17.344;2023-08-21T00:23:58;1.50;;;1.40;;
13477;SDS011;12598;62.382;17.344;2023-08-21T00:25:00;1.50;;;1.30;;
13477;SDS011;12598;62.382;17.344;2023-08-21T00:26:02;1.85;;;1.60;;
13477;SDS011;12598;62.382;17.344;2023-08-21T00:27:04;1.60;;;1.45;;
13477;SDS011;12598;62.382;17.344;2023-08-21T00:28:06;1.48;;;1.27;;
13477;SDS011;12598;62.382;17.344;2023-08-21T00:29:08;2.25;;;1.60;;
13477;SDS011;12598;62.382;17.344;2023-08-21T00:30:10;1.88;;;1.63;;
13477;SDS011;12598;62.382;17.344;2023-08-21T00:31:12;1.45;;;1.35;;
13477;SDS011;12598;62.382;17.344;2023-08-21T00:32:14;1.50;;;1.40;;
13477;SDS011;12598;62.382;17.344;2023-08-21T00:33:17;1.40;;;1.30;;
13477;SDS011;12598;62.382;17.344;2023-08-21T00:34:19;1.52;;;1.42;;
13477;SDS011;12598;62.382;17.344;2023-08-21T00:35:21;1.80;;;1.67;;
13477;SDS011;12598;62.382;17.344;2023-08-21T00:36:23;1.40;;;1.30;;
13477;SDS011;12598;62.382;17.344;2023-08-21T00:37:25;1.35;;;1.25;;
13477;SDS011;12598;62.382;17.344;2023-08-21T00:38:27;1.50;;;1.40;;
13477;SDS011;12598;62.382;17.344;2023-08-21T00:39:29;1.67;;;1.30;;
13477;SDS011;12598;62.382;17.344;2023-08-21T00:40:31;1.48;;;1.38;;
13477;SDS011;12598;62.382;17.344;2023-08-21T00:41:34;1.48;;;1.38;;
13477;SDS011;12598;62.382;17.344;2023-08-21T00:42:36;2.28;;;1.55;;
13477;SDS011;12598;62.382;17.344;2023-08-21T00:43:38;1.92;;;1.52;;
13477;SDS011;12598;62.382;17.344;2023-08-21T00:44:40;1.58;;;1.48;;
13477;SDS011;12598;62.382;17.344;2023-08-21T00:45:42;1.75;;;1.40;;
13477;SDS011;12598;62.382;17.344;2023-08-21T00:46:46;2.15;;;1.42;;
13477;SDS011;12598;62.382;17.344;2023-08-21T00:47:49;2.15;;;1.20;;
13477;SDS011;12598;62.382;17.344;2023-08-21T00:48:52;1.70;;;1.35;;
13477;SDS011;12598;62.382;17.344;2023-08-21T00:49:54;2.45;;;1.70;;
13477;SDS011;12598;62.382;17.344;2023-08-21T00:50:57;2.97;;;1.60;;
13477;SDS011;12598;62.382;17.344;2023-08-21T00:51:59;1.45;;;1.35;;
13477;SDS011;12598;62.382;17.344;2023-08-21T00:53:05;1.98;;;1.35;;
13477;SDS011;12598;62.382;17.344;2023-08-21T00:54:08;1.65;;;1.55;;
13477;SDS011;12598;62.382;17.344;2023-08-21T00:55:11;1.98;;;1.65;;
13477;SDS011;12598;62.382;17.344;2023-08-21T00:56:14;1.85;;;1.58;;
13477;SDS011;12598;62.382;17.344;2023-08-21T00:57:17;1.55;;;1.45;;
13477;SDS011;12598;62.382;17.344;2023-08-21T00:58:19;1.70;;;1.55;;
13477;SDS011;12598;62.382;17.344;2023-08-21T00:59:21;1.40;;;1.30;;
13477;SDS011;12598;62.382;17.344;2023-08-21T01:00:24;1.75;;;1.15;;
13477;SDS011;12598;62.382;17.344;2023-08-21T01:01:26;1.30;;;1.10;;
13477;SDS011;12598;62.382;17.344;2023-08-21T01:02:30;1.80;;;1.52;;
13477;SDS011;12598;62.382;17.344;2023-08-21T01:03:32;2.30;;;1.30;;
13477;SDS011;12598;62.382;17.344;2023-08-21T01:04:34;1.48;;;1.38;;
13477;SDS011;12598;62.382;17.344;2023-08-21T01:05:36;1.45;;;1.27;;
13477;SDS011;12598;62.382;17.344;2023-08-21T01:06:38;1.42;;;1.20;;
13477;SDS011;12598;62.382;17.344;2023-08-21T01:07:51;1.40;;;1.30;;
13477;SDS011;12598;62.382;17.344;2023-08-21T01:09:03;3.10;;;1.35;;
13477;SDS011;12598;62.382;17.344;2023-08-21T01:10:13;1.80;;;1.30;;
13477;SDS011;12598;62.382;17.344;2023-08-21T01:15:22;1.50;;;1.40;;
13477;SDS011;12598;62.382;17.344;2023-08-21T01:16:25;2.47;;;1.50;;
13477;SDS011;12598;62.382;17.344;2023-08-21T01:17:28;1.45;;;1.35;;
13477;SDS011;12598;62.382;17.344;2023-08-21T01:18:31;1.98;;;1.63;;
13477;SDS011;12598;62.382;17.344;2023-08-21T01:19:37;1.52;;;1.30;;
13477;SDS011;12598;62.382;17.344;2023-08-21T01:20:42;1.65;;;1.10;;
13477;SDS011;12598;62.382;17.344;2023-08-21T01:21:44;1.50;;;1.30;;
13477;SDS011;12598;62.382;17.344;2023-08-21T01:22:46;1.40;;;1.30;;
13477;SDS011;12598;62.382;17.344;2023-08-21T01:23:48;2.25;;;1.25;;
13477;SDS011;12598;62.382;17.344;2023-08-21T01:24:50;1.17;;;1.08;;
13477;SDS011;12598;62.382;17.344;2023-08-21T01:25:52;2.13;;;1.20;;
13477;SDS011;12598;62.382;17.344;2023-08-21T01:26:54;1.95;;;1.55;;
13477;SDS011;12598;62.382;17.344;2023-08-21T01:27:56;1.65;;;1.55;;
13477;SDS011;12598;62.382;17.344;2023-08-21T01:28:58;2.38;;;1.52;;
13477;SDS011;12598;62.382;17.344;2023-08-21T01:30:00;2.40;;;1.50;;
13477;SDS011;12598;62.382;17.344;2023-08-21T01:31:38;1.55;;;1.45;;
13477;SDS011;12598;62.382;17.344;2023-08-21T01:32:48;1.83;;;1.20;;
13477;SDS011;12598;62.382;17.344;2023-08-21T01:33:53;1.30;;;1.13;;
13477;SDS011;12598;62.382;17.344;2023-08-21T01:34:59;2.03;;;1.55;;
13477;SDS011;12598;62.382;17.344;2023-08-21T01:36:03;2.17;;;1.50;;
13477;SDS011;12598;62.382;17.344;2023-08-21T01:37:06;1.98;;;1.50;;
13477;SDS011;12598;62.382;17.344;2023-08-21T01:38:09;1.50;;;1.00;;
13477;SDS011;12598;62.382;17.344;2023-08-21T01:39:12;1.65;;;1.55;;
13477;SDS011;12598;62.382;17.344;2023-08-21T01:40:23;1.52;;;1.42;;
13477;SDS011;12598;62.382;17.344;2023-08-21T01:41:26;1.55;;;1.27;;
13477;SDS011;12598;62.382;17.344;2023-08-21T01:42:28;1.40;;;1.30;;
13477;SDS011;12598;62.382;17.344;2023-08-21T01:43:30;1.60;;;1.50;;
13477;SDS011;12598;62.382;17.344;2023-08-21T01:44:32;1.27;;;1.17;;
13477;SDS011;12598;62.382;17.344;2023-08-21T01:45:36;1.67;;;1.38;;
13477;SDS011;12598;62.382;17.344;2023-08-21T01:46:38;1.40;;;1.30;;
13477;SDS011;12598;62.382;17.344;2023-08-21T01:47:40;1.40;;;1.30;;
13477;SDS011;12598;62.382;17.344;2023-08-21T01:48:42;1.60;;;1.50;;
13477;SDS011;12598;62.382;17.344;2023-08-21T01:49:44;1.55;;;1.45;;
13477;SDS011;12598;62.382;17.344;2023-08-21T01:50:46;1.38;;;1.27;;
13477;SDS011;12598;62.382;17.344;2023-08-21T01:51:48;1.75;;;1.65;;
13477;SDS011;12598;62.382;17.344;2023-08-21T01:52:50;1.60;;;1.50;;
13477;SDS011;12598;62.382;17.344;2023-08-21T01:53:52;1.50;;;1.40;;
13477;SDS011;12598;62.382;17.344;2023-08-21T01:54:54;2.28;;;1.40;;
13477;SDS011;12598;62.382;17.344;2023-08-21T01:55:57;1.42;;;1.25;;
13477;SDS011;12598;62.382;17.344;2023-08-21T01:56:59;1.98;;;1.40;;
13477;SDS011;12598;62.382;17.344;2023-08-21T01:58:01;1.33;;;1.23;;
13477;SDS011;12598;62.382;17.344;2023-08-21T01:59:04;1.30;;;1.17;;
13477;SDS011;12598;62.382;17.344;2023-08-21T02:00:06;1.45;;;1.35;;
13477;SDS011;12598;62.382;17.344;2023-08-21T02:01:15;1.65;;;1.55;;
13477;SDS011;12598;62.382;17.344;2023-08-21T02:02:17;1.60;;;1.50;;
13477;SDS011;12598;62.382;17.344;2023-08-21T02:03:19;1.67;;;1.30;;
13477;SDS011;12598;62.382;17.344;2023-08-21T02:04:21;2.25;;;1.20;;
13477;SDS011;12598;62.382;17.344;2023-08-21T02:05:23;1.42;;;1.33;;
13477;SDS011;12598;62.382;17.344;2023-08-21T02:06:25;1.70;;;1.60;;
13477;SDS011;12598;62.382;17.344;2023-08-21T02:07:27;1.70;;;1.60;;
13477;SDS011;12598;62.382;17.344;2023-08-21T02:08:32;1.42;;;1.33;;
13477;SDS011;12598;62.382;17.344;2023-08-21T02:09:34;1.92;;;1.63;;
13477;SDS011;12598;62.382;17.344;2023-08-21T02:10:36;1.80;;;1.70;;
13477;SDS011;12598;62.382;17.344;2023-08-21T02:11:38;2.22;;;1.50;;
13477;SDS011;12598;62.382;17.344;2023-08-21T02:12:40;7.18;;;1.67;;
13477;SDS011;12598;62.382;17.344;2023-08-21T02:13:43;1.40;;;1.30;;
13477;SDS011;12598;62.382;17.344;2023-08-21T02:14:45;1.70;;;1.60;;
13477;SDS011;12598;62.382;17.344;2023-08-21T02:15:48;1.60;;;1.50;;
13477;SDS011;12598;62.382;17.344;2023-08-21T02:16:50;2.17;;;1.38;;
13477;SDS011;12598;62.382;17.344;2023-08-21T02:17:52;1.50;;;1.40;;
13477;SDS011;12598;62.382;17.344;2023-08-21T02:18:54;1.70;;;1.42;;
13477;SDS011;12598;62.382;17.344;2023-08-21T02:19:56;1.65;;;1.55;;
13477;SDS011;12598;62.382;17.344;2023-08-21T02:21:00;1.88;;;1.67;;
13477;SDS011;12598;62.382;17.344;2023-08-21T02:22:03;1.75;;;1.60;;
13477;SDS011;12598;62.382;17.344;2023-08-21T02:23:05;1.58;;;1.40;;
13477;SDS011;12598;62.382;17.344;2023-08-21T02:24:07;1.65;;;1.55;;
13477;SDS011;12598;62.382;17.344;2023-08-21T02:25:09;1.95;;;1.35;;
13477;SDS011;12598;62.382;17.344;2023-08-21T02:26:11;1.40;;;1.30;;
13477;SDS011;12598;62.382;17.344;2023-08-21T02:27:13;1.38;;;1.27;;
13477;SDS011;12598;62.382;17.344;2023-08-21T02:28:15;1.67;;;1.50;;
13477;SDS011;12598;62.382;17.344;2023-08-21T02:29:17;2.13;;;1.50;;
13477;SDS011;12598;62.382;17.344;2023-08-21T02:30:19;1.85;;;1.65;;
13477;SDS011;12598;62.382;17.344;2023-08-21T02:31:22;1.98;;;1.75;;
13477;SDS011;12598;62.382;17.344;2023-08-21T02:32:24;1.85;;;1.73;;
13477;SDS011;12598;62.382;17.344;2023-08-21T02:33:26;1.60;;;1.50;;
13477;SDS011;12598;62.382;17.344;2023-08-21T02:34:30;1.40;;;1.30;;
13477;SDS011;12598;62.382;17.344;2023-08-21T02:35:31;1.75;;;1.35;;
13477;SDS011;12598;62.382;17.344;2023-08-21T02:36:34;2.03;;;1.45;;
13477;SDS011;12598;62.382;17.344;2023-08-21T02:37:36;1.60;;;1.50;;
13477;SDS011;12598;62.382;17.344;2023-08-21T02:38:40;3.95;;;1.58;;
13477;SDS011;12598;62.382;17.344;2023-08-21T02:39:42;2.25;;;1.58;;
13477;SDS011;12598;62.382;17.344;2023-08-21T02:40:44;2.05;;;1.70;;
13477;SDS011;12598;62.382;17.344;2023-08-21T02:41:46;1.50;;;1.40;;
13477;SDS011;12598;62.382;17.344;2023-08-21T02:42:48;1.38;;;1.27;;
13477;SDS011;12598;62.382;17.344;2023-08-21T02:43:50;1.52;;;1.42;;
13477;SDS011;12598;62.382;17.344;2023-08-21T02:44:52;1.52;;;1.40;;
13477;SDS011;12598;62.382;17.344;2023-08-21T02:45:54;1.40;;;1.30;;
13477;SDS011;12598;62.382;17.344;2023-08-21T02:46:56;1.60;;;1.50;;
13477;SDS011;12598;62.382;17.344;2023-08-21T02:47:57;1.67;;;1.58;;
13477;SDS011;12598;62.382;17.344;2023-08-21T02:49:00;2.15;;;1.40;;
13477;SDS011;12598;62.382;17.344;2023-08-21T02:50:03;2.10;;;1.67;;
13477;SDS011;12598;62.382;17.344;2023-08-21T02:51:06;1.60;;;1.50;;
13477;SDS011;12598;62.382;17.344;2023-08-21T02:52:08;2.35;;;1.75;;
13477;SDS011;12598;62.382;17.344;2023-08-21T02:53:10;1.50;;;1.40;;
13477;SDS011;12598;62.382;17.344;2023-08-21T02:54:12;2.03;;;1.70;;
13477;SDS011;12598;62.382;17.344;2023-08-21T02:55:14;2.38;;;1.67;;
13477;SDS011;12598;62.382;17.344;2023-08-21T02:56:19;1.25;;;1.25;;
13477;SDS011;12598;62.382;17.344;2023-08-21T02:57:21;2.17;;;1.80;;
13477;SDS011;12598;62.382;17.344;2023-08-21T02:58:23;1.67;;;1.58;;
13477;SDS011;12598;62.382;17.344;2023-08-21T02:59:25;1.63;;;1.40;;
13477;SDS011;12598;62.382;17.344;2023-08-21T03:00:27;1.23;;;1.13;;
13477;SDS011;12598;62.382;17.344;2023-08-21T03:01:28;1.60;;;1.50;;
13477;SDS011;12598;62.382;17.344;2023-08-21T03:02:30;1.40;;;1.30;;
13477;SDS011;12598;62.382;17.344;2023-08-21T03:03:33;1.60;;;1.50;;
13477;SDS011;12598;62.382;17.344;2023-08-21T03:04:37;1.48;;;1.38;;
13477;SDS011;12598;62.382;17.344;2023-08-21T03:05:40;1.92;;;1.60;;
13477;SDS011;12598;62.382;17.344;2023-08-21T03:06:41;2.28;;;1.63;;
13477;SDS011;12598;62.382;17.344;2023-08-21T03:07:43;1.83;;;1.73;;
13477;SDS011;12598;62.382;17.344;2023-08-21T03:08:45;1.88;;;1.60;;
13477;SDS011;12598;62.382;17.344;2023-08-21T03:09:48;1.70;;;1.60;;
13477;SDS011;12598;62.382;17.344;2023-08-21T03:10:50;1.80;;;1.70;;
13477;SDS011;12598;62.382;17.344;2023-08-21T03:11:52;1.80;;;1.48;;
13477;SDS011;12598;62.382;17.344;2023-08-21T03:12:54;1.92;;;1.83;;
13477;SDS011;12598;62.382;17.344;2023-08-21T03:13:56;4.15;;;1.70;;
13477;SDS011;12598;62.382;17.344;2023-08-21T03:14:58;1.75;;;1.65;;
13477;SDS011;12598;62.382;17.344;2023-08-21T03:16:00;2.20;;;1.70;;
13477;SDS011;12598;62.382;17.344;2023-08-21T03:17:02;2.10;;;1.90;;
13477;SDS011;12598;62.382;17.344;2023-08-21T03:18:04;2.10;;;1.90;;
13477;SDS011;12598;62.382;17.344;2023-08-21T03:19:06;4.30;;;1.80;;
13477;SDS011;12598;62.382;17.344;2023-08-21T03:20:09;1.95;;;1.80;;
13477;SDS011;12598;62.382;17.344;2023-08-21T03:21:11;1.83;;;1.73;;
13477;SDS011;12598;62.382;17.344;2023-08-21T03:22:13;1.70;;;1.60;;
13477;SDS011;12598;62.382;17.344;2023-08-21T03:23:16;1.95;;;1.70;;
13477;SDS011;12598;62.382;17.344;2023-08-21T03:24:18;1.67;;;1.58;;
13477;SDS011;12598;62.382;17.344;2023-08-21T03:25:21;1.80;;;1.70;;
13477;SDS011;12598;62.382;17.344;2023-08-21T03:26:25;1.63;;;1.52;;
13477;SDS011;12598;62.382;17.344;2023-08-21T03:27:28;1.60;;;1.50;;
13477;SDS011;12598;62.382;17.344;2023-08-21T03:28:31;1.88;;;1.63;;
13477;SDS011;12598;62.382;17.344;2023-08-21T03:29:34;2.63;;;2.10;;
13477;SDS011;12598;62.382;17.344;2023-08-21T03:30:38;1.85;;;1.70;;
13477;SDS011;12598;62.382;17.344;2023-08-21T03:31:41;3.47;;;1.80;;
13477;SDS011;12598;62.382;17.344;2023-08-21T03:32:43;2.25;;;1.63;;
13477;SDS011;12598;62.382;17.344;2023-08-21T03:33:46;2.05;;;1.85;;
13477;SDS011;12598;62.382;17.344;2023-08-21T03:34:51;1.88;;;1.77;;
13477;SDS011;12598;62.382;17.344;2023-08-21T03:35:54;3.85;;;1.88;;
13477;SDS011;12598;62.382;17.344;2023-08-21T03:36:58;2.65;;;1.80;;
13477;SDS011;12598;62.382;17.344;2023-08-21T03:38:01;2.25;;;2.00;;
13477;SDS011;12598;62.382;17.344;2023-08-21T03:39:09;1.90;;;1.80;;
13477;SDS011;12598;62.382;17.344;2023-08-21T03:40:16;1.88;;;1.75;;
13477;SDS011;12598;62.382;17.344;2023-08-21T03:41:20;2.28;;;1.83;;
13477;SDS011;12598;62.382;17.344;2023-08-21T03:42:22;1.70;;;1.60;;
13477;SDS011;12598;62.382;17.344;2023-08-21T03:43:24;1.65;;;1.55;;
13477;SDS011;12598;62.382;17.344;2023-08-21T03:44:26;1.60;;;1.50;;
13477;SDS011;12598;62.382;17.344;2023-08-21T03:45:27;2.22;;;2.00;;
13477;SDS011;12598;62.382;17.344;2023-08-21T03:46:29;2.17;;;2.00;;
13477;SDS011;12598;62.382;17.344;2023-08-21T03:47:31;2.25;;;1.70;;
13477;SDS011;12598;62.382;17.344;2023-08-21T03:48:38;1.98;;;1.88;;
13477;SDS011;12598;62.382;17.344;2023-08-21T03:49:40;1.80;;;1.40;;
13477;SDS011;12598;62.382;17.344;2023-08-21T03:50:42;2.13;;;1.65;;
13477;SDS011;12598;62.382;17.344;2023-08-21T03:51:45;2.00;;;1.90;;
13477;SDS011;12598;62.382;17.344;2023-08-21T03:52:47;2.45;;;1.67;;
13477;SDS011;12598;62.382;17.344;2023-08-21T03:53:49;1.60;;;1.50;;
13477;SDS011;12598;62.382;17.344;2023-08-21T03:54:51;2.17;;;1.88;;
13477;SDS011;12598;62.382;17.344;2023-08-21T03:55:53;1.88;;;1.77;;
13477;SDS011;12598;62.382;17.344;2023-08-21T03:56:55;2.65;;;1.67;;
13477;SDS011;12598;62.382;17.344;2023-08-21T03:57:57;1.67;;;1.58;;
13477;SDS011;12598;62.382;17.344;2023-08-21T03:58:59;3.47;;;1.52;;
13477;SDS011;12598;62.382;17.344;2023-08-21T04:00:02;1.92;;;1.65;;
13477;SDS011;12598;62.382;17.344;2023-08-21T04:01:04;3.10;;;2.00;;
13477;SDS011;12598;62.382;17.344;2023-08-21T04:02:06;1.55;;;1.45;;
13477;SDS011;12598;62.382;17.344;2023-08-21T04:03:09;2.80;;;1.90;;
13477;SDS011;12598;62.382;17.344;2023-08-21T04:04:11;2.08;;;1.88;;
13477;SDS011;12598;62.382;17.344;2023-08-21T04:05:13;3.38;;;1.88;;
13477;SDS011;12598;62.382;17.344;2023-08-21T04:06:15;2.00;;;1.90;;
13477;SDS011;12598;62.382;17.344;2023-08-21T04:07:17;2.13;;;1.92;;
13477;SDS011;12598;62.382;17.344;2023-08-21T04:08:19;2.17;;;2.00;;
13477;SDS011;12598;62.382;17.344;2023-08-21T04:09:22;2.88;;;1.88;;
13477;SDS011;12598;62.382;17.344;2023-08-21T04:10:24;1.88;;;1.77;;
13477;SDS011;12598;62.382;17.344;2023-08-21T04:11:26;1.88;;;1.77;;
13477;SDS011;12598;62.382;17.344;2023-08-21T04:12:30;2.10;;;1.90;;
13477;SDS011;12598;62.382;17.344;2023-08-21T04:13:32;3.13;;;2.00;;
13477;SDS011;12598;62.382;17.344;2023-08-21T04:14:34;1.85;;;1.75;;
13477;SDS011;12598;62.382;17.344;2023-08-21T04:15:36;2.22;;;1.98;;
13477;SDS011;12598;62.382;17.344;2023-08-21T04:16:38;2.47;;;2.10;;
13477;SDS011;12598;62.382;17.344;2023-08-21T04:17:40;2.20;;;1.98;;
13477;SDS011;12598;62.382;17.344;2023-08-21T04:18:43;1.92;;;1.83;;
13477;SDS011;12598;62.382;17.344;2023-08-21T04:19:45;1.92;;;1.75;;
13477;SDS011;12598;62.382;17.344;2023-08-21T04:20:50;1.98;;;1.80;;
13477;SDS011;12598;62.382;17.344;2023-08-21T04:21:52;2.22;;;2.03;;
13477;SDS011;12598;62.382;17.344;2023-08-21T04:22:54;2.10;;;1.95;;
13477;SDS011;12598;62.382;17.344;2023-08-21T04:23:56;2.15;;;1.95;;
13477;SDS011;12598;62.382;17.344;2023-08-21T04:24:59;2.55;;;2.05;;
13477;SDS011;12598;62.382;17.344;2023-08-21T04:26:02;2.13;;;2.00;;
13477;SDS011;12598;62.382;17.344;2023-08-21T04:27:05;3.28;;;2.50;;
13477;SDS011;12598;62.382;17.344;2023-08-21T04:28:07;2.40;;;2.20;;
13477;SDS011;12598;62.382;17.344;2023-08-21T04:29:09;2.95;;;2.40;;
13477;SDS011;12598;62.382;17.344;2023-08-21T04:30:11;2.47;;;2.13;;
13477;SDS011;12598;62.382;17.344;2023-08-21T04:31:13;2.42;;;2.13;;
13477;SDS011;12598;62.382;17.344;2023-08-21T04:32:16;2.83;;;2.22;;
13477;SDS011;12598;62.382;17.344;2023-08-21T04:33:19;2.45;;;2.17;;
13477;SDS011;12598;62.382;17.344;2023-08-21T04:34:21;2.00;;;1.90;;
13477;SDS011;12598;62.382;17.344;2023-08-21T04:35:24;1.95;;;1.77;;
13477;SDS011;12598;62.382;17.344;2023-08-21T04:36:26;2.20;;;2.00;;
13477;SDS011;12598;62.382;17.344;2023-08-21T04:37:28;2.35;;;2.15;;
13477;SDS011;12598;62.382;17.344;2023-08-21T04:38:30;2.70;;;2.30;;
13477;SDS011;12598;62.382;17.344;2023-08-21T04:39:32;2.30;;;2.10;;
13477;SDS011;12598;62.382;17.344;2023-08-21T04:40:34;2.22;;;2.03;;
13477;SDS011;12598;62.382;17.344;2023-08-21T04:41:36;2.58;;;2.38;;
13477;SDS011;12598;62.382;17.344;2023-08-21T04:42:38;3.28;;;2.25;;
13477;SDS011;12598;62.382;17.344;2023-08-21T04:43:41;2.17;;;1.90;;
13477;SDS011;12598;62.382;17.344;2023-08-21T04:44:44;2.30;;;2.10;;
13477;SDS011;12598;62.382;17.344;2023-08-21T04:45:47;1.92;;;1.83;;
13477;SDS011;12598;62.382;17.344;2023-08-21T04:46:51;2.08;;;1.85;;
13477;SDS011;12598;62.382;17.344;2023-08-21T04:47:53;2.72;;;2.15;;
13477;SDS011;12598;62.382;17.344;2023-08-21T04:48:59;2.67;;;2.00;;
13477;SDS011;12598;62.382;17.344;2023-08-21T04:50:01;2.33;;;2.08;;
13477;SDS011;12598;62.382;17.344;2023-08-21T04:51:03;2.35;;;2.15;;
13477;SDS011;12598;62.382;17.344;2023-08-21T04:52:06;2.38;;;2.17;;
13477;SDS011;12598;62.382;17.344;2023-08-21T04:53:08;2.22;;;1.98;;
13477;SDS011;12598;62.382;17.344;2023-08-21T04:54:10;2.10;;;1.90;;
13477;SDS011;12598;62.382;17.344;2023-08-21T04:55:13;2.33;;;2.10;;
13477;SDS011;12598;62.382;17.344;2023-08-21T04:56:15;2.20;;;2.00;;
13477;SDS011;12598;62.382;17.344;2023-08-21T04:57:17;1.98;;;1.88;;
13477;SDS011;12598;62.382;17.344;2023-08-21T04:58:19;2.00;;;1.80;;
13477;SDS011;12598;62.382;17.344;2023-08-21T04:59:21;2.72;;;2.50;;
13477;SDS011;12598;62.382;17.344;2023-08-21T05:00:24;3.00;;;2.33;;
13477;SDS011;12598;62.382;17.344;2023-08-21T05:01:26;2.40;;;2.20;;
13477;SDS011;12598;62.382;17.344;2023-08-21T05:02:30;2.00;;;1.90;;
13477;SDS011;12598;62.382;17.344;2023-08-21T05:03:32;2.72;;;2.42;;
13477;SDS011;12598;62.382;17.344;2023-08-21T05:04:35;2.10;;;1.98;;
13477;SDS011;12598;62.382;17.344;2023-08-21T05:05:38;3.08;;;2.08;;
13477;SDS011;12598;62.382;17.344;2023-08-21T05:06:40;2.00;;;1.90;;
13477;SDS011;12598;62.382;17.344;2023-08-21T05:07:42;2.38;;;2.17;;
13477;SDS011;12598;62.382;17.344;2023-08-21T05:08:44;2.10;;;1.90;;
13477;SDS011;12598;62.382;17.344;2023-08-21T05:09:46;2.33;;;2.13;;
13477;SDS011;12598;62.382;17.344;2023-08-21T05:10:56;2.05;;;1.88;;
13477;SDS011;12598;62.382;17.344;2023-08-21T05:11:59;2.28;;;2.08;;
13477;SDS011;12598;62.382;17.344;2023-08-21T05:13:03;2.40;;;2.20;;
13477;SDS011;12598;62.382;17.344;2023-08-21T05:14:05;2.20;;;2.10;;
13477;SDS011;12598;62.382;17.344;2023-08-21T05:15:08;2.45;;;2.25;;
13477;SDS011;12598;62.382;17.344;2023-08-21T05:16:11;2.20;;;1.95;;
13477;SDS011;12598;62.382;17.344;2023-08-21T05:17:14;2.85;;;2.33;;
13477;SDS011;12598;62.382;17.344;2023-08-21T05:18:16;2.10;;;2.00;;
13477;SDS011;12598;62.382;17.344;2023-08-21T05:19:18;2.30;;;2.10;;
13477;SDS011;12598;62.382;17.344;2023-08-21T05:20:20;2.45;;;2.25;;
13477;SDS011;12598;62.382;17.344;2023-08-21T05:21:22;2.80;;;1.98;;
13477;SDS011;12598;62.382;17.344;2023-08-21T05:22:24;2.10;;;2.00;;
13477;SDS011;12598;62.382;17.344;2023-08-21T05:23:27;2.30;;;2.10;;
13477;SDS011;12598;62.382;17.344;2023-08-21T05:24:34;3.03;;;1.90;;
13477;SDS011;12598;62.382;17.344;2023-08-21T05:25:38;2.25;;;1.90;;
13477;SDS011;12598;62.382;17.344;2023-08-21T05:26:40;2.55;;;2.20;;
13477;SDS011;12598;62.382;17.344;2023-08-21T05:27:42;2.92;;;2.35;;
13477;SDS011;12598;62.382;17.344;2023-08-21T05:28:44;2.13;;;2.03;;
13477;SDS011;12598;62.382;17.344;2023-08-21T05:29:46;2.33;;;2.03;;
13477;SDS011;12598;62.382;17.344;2023-08-21T05:30:48;2.63;;;2.08;;
13477;SDS011;12598;62.382;17.344;2023-08-21T05:31:52;2.55;;;1.90;;
13477;SDS011;12598;62.382;17.344;2023-08-21T05:32:54;2.30;;;2.10;;
13477;SDS011;12598;62.382;17.344;2023-08-21T05:33:56;2.47;;;2.28;;
13477;SDS011;12598;62.382;17.344;2023-08-21T05:34:58;2.78;;;2.15;;
13477;SDS011;12598;62.382;17.344;2023-08-21T05:36:00;2.88;;;2.00;;
13477;SDS011;12598;62.382;17.344;2023-08-21T05:37:02;2.50;;;2.30;;
13477;SDS011;12598;62.382;17.344;2023-08-21T05:38:05;2.67;;;2.47;;
13477;SDS011;12598;62.382;17.344;2023-08-21T05:39:09;2.00;;;1.90;;
13477;SDS011;12598;62.382;17.344;2023-08-21T05:40:11;2.28;;;2.08;;
13477;SDS011;12598;62.382;17.344;2023-08-21T05:41:14;4.10;;;2.20;;
13477;SDS011;12598;62.382;17.344;2023-08-21T05:42:17;2.53;;;2.03;;
13477;SDS011;12598;62.382;17.344;2023-08-21T05:43:19;3.70;;;2.42;;
13477;SDS011;12598;62.382;17.344;2023-08-21T05:44:21;2.28;;;1.90;;
13477;SDS011;12598;62.382;17.344;2023-08-21T05:45:23;2.42;;;2.22;;
13477;SDS011;12598;62.382;17.344;2023-08-21T05:46:25;3.97;;;2.38;;
13477;SDS011;12598;62.382;17.344;2023-08-21T05:47:27;2.65;;;2.22;;
13477;SDS011;12598;62.382;17.344;2023-08-21T05:48:29;2.42;;;2.22;;
13477;SDS011;12598;62.382;17.344;2023-08-21T05:49:31;2.30;;;2.10;;
13477;SDS011;12598;62.382;17.344;2023-08-21T05:50:33;2.35;;;2.15;;
13477;SDS011;12598;62.382;17.344;2023-08-21T05:51:38;2.38;;;2.17;;
13477;SDS011;12598;62.382;17.344;2023-08-21T05:52:42;3.42;;;2.40;;
13477;SDS011;12598;62.382;17.344;2023-08-21T05:53:44;2.70;;;2.42;;
13477;SDS011;12598;62.382;17.344;2023-08-21T05:54:46;3.90;;;2.20;;
13477;SDS011;12598;62.382;17.344;2023-08-21T05:55:48;2.03;;;1.92;;
13477;SDS011;12598;62.382;17.344;2023-08-21T05:56:50;2.40;;;2.20;;
13477;SDS011;12598;62.382;17.344;2023-08-21T05:57:52;3.88;;;2.22;;
13477;SDS011;12598;62.382;17.344;2023-08-21T05:58:54;2.55;;;2.35;;
13477;SDS011;12598;62.382;17.344;2023-08-21T05:59:58;2.50;;;2.30;;
13477;SDS011;12598;62.382;17.344;2023-08-21T06:01:03;2.67;;;2.47;;
13477;SDS011;12598;62.382;17.344;2023-08-21T06:02:07;5.63;;;2.28;;
13477;SDS011;12598;62.382;17.344;2023-08-21T06:03:09;4.03;;;2.40;;
13477;SDS011;12598;62.382;17.344;2023-08-21T06:04:31;2.42;;;2.30;;
13477;SDS011;12598;62.382;17.344;2023-08-21T06:05:35;2.65;;;2.28;;
13477;SDS011;12598;62.382;17.344;2023-08-21T06:06:38;3.17;;;2.20;;
13477;SDS011;12598;62.382;17.344;2023-08-21T06:07:41;2.40;;;2.20;;
13477;SDS011;12598;62.382;17.344;2023-08-21T06:08:43;2.00;;;1.90;;
13477;SDS011;12598;62.382;17.344;2023-08-21T06:09:45;2.33;;;2.13;;
13477;SDS011;12598;62.382;17.344;2023-08-21T06:10:55;2.30;;;2.10;;
13477;SDS011;12598;62.382;17.344;2023-08-21T06:11:57;2.47;;;2.00;;
13477;SDS011;12598;62.382;17.344;2023-08-21T06:12:59;2.60;;;2.40;;
13477;SDS011;12598;62.382;17.344;2023-08-21T06:14:01;2.70;;;2.50;;
13477;SDS011;12598;62.382;17.344;2023-08-21T06:15:03;4.82;;;2.60;;
13477;SDS011;12598;62.382;17.344;2023-08-21T06:16:05;2.70;;;2.50;;